CYNM

Matagami Airport

Matagami, Quebec, Canada
METAR CYNM 092202Z AUTO 31012KT 9SM -SN SCT022 OVC029 M10/M13 A3003 RMK SLP193
Observed Flight Rules
Dec-9 @ 22:02 UTC (24 minutes ago) Marginal Visual Flight Rules
Wind Visibility Clouds Conditions
310° at 12 knots 9 miles
  • Scattered at 2,200' AGL
  • Overcast at 2,900' AGL
  • Light Snow
Temperatures Readings
Current -10°C / 14°F
Dewpoint -13°C / 9°F
Humidity 79%
Altimeter 30.03" Hg
Pressure 1019.3 hPa
Elevation 281
METAR CYNM 092202Z AUTO 31012KT 9SM -SN SCT022 OVC029 M10/M13 A3003 RMK SLP193
Observed Flight Rules
Dec-9 @ 22:02 UTC
(24 minutes ago)
MVFR
Wind Visibility
310° at 12 knots 9 miles
Clouds
  • Scattered at 2,200' AGL
  • Overcast at 2,900' AGL
Conditions
  • Light Snow
Temperature Dewpoint
-10°C / 14°F -13°C / 9°F
Humidity Altimeter Pressure
79% 30.03" Hg 1019.3 hPa